sensor_id;sensor_type;location;lat;lon;timestamp;pressure;altitude;pressure_sealevel;temperature;humidity
34177;BME280;20450;49.074;9.158;2023-04-15T00:01:39;98823.47;;;7.62;74.47
34177;BME280;20450;49.074;9.158;2023-04-15T00:04:06;98830.09;;;7.22;75.75
34177;BME280;20450;49.074;9.158;2023-04-15T00:06:33;98828.16;;;6.98;78.17
34177;BME280;20450;49.074;9.158;2023-04-15T00:09:03;98831.91;;;6.77;77.57
34177;BME280;20450;49.074;9.158;2023-04-15T00:11:30;98834.66;;;6.51;78.22
34177;BME280;20450;49.074;9.158;2023-04-15T00:13:57;98832.19;;;6.50;78.60
34177;BME280;20450;49.074;9.158;2023-04-15T00:16:24;98837.13;;;6.53;79.54
34177;BME280;20450;49.074;9.158;2023-04-15T00:18:51;98840.00;;;6.51;80.37
34177;BME280;20450;49.074;9.158;2023-04-15T00:21:18;98833.19;;;6.55;80.41
34177;BME280;20450;49.074;9.158;2023-04-15T00:23:45;98837.91;;;6.73;80.33
34177;BME280;20450;49.074;9.158;2023-04-15T00:26:14;98826.53;;;6.84;78.66
34177;BME280;20450;49.074;9.158;2023-04-15T00:28:41;98826.69;;;6.95;78.42
34177;BME280;20450;49.074;9.158;2023-04-15T00:31:09;98824.38;;;7.05;76.86
34177;BME280;20450;49.074;9.158;2023-04-15T00:33:35;98832.00;;;7.08;76.21
34177;BME280;20450;49.074;9.158;2023-04-15T00:36:03;98832.81;;;7.15;76.02
34177;BME280;20450;49.074;9.158;2023-04-15T00:38:31;98828.03;;;7.17;76.08
34177;BME280;20450;49.074;9.158;2023-04-15T00:40:58;98832.31;;;6.74;77.38
34177;BME280;20450;49.074;9.158;2023-04-15T00:43:27;98830.09;;;6.58;77.51
34177;BME280;20450;49.074;9.158;2023-04-15T00:45:55;98827.41;;;6.58;77.47
34177;BME280;20450;49.074;9.158;2023-04-15T00:48:26;98825.13;;;6.62;77.27
34177;BME280;20450;49.074;9.158;2023-04-15T00:50:53;98813.53;;;6.74;77.15
34177;BME280;20450;49.074;9.158;2023-04-15T00:53:20;98823.84;;;6.84;76.95
34177;BME280;20450;49.074;9.158;2023-04-15T00:55:47;98819.47;;;6.89;76.12
34177;BME280;20450;49.074;9.158;2023-04-15T00:58:15;98821.75;;;6.92;75.56
34177;BME280;20450;49.074;9.158;2023-04-15T01:00:43;98822.59;;;6.86;75.97
34177;BME280;20450;49.074;9.158;2023-04-15T01:03:11;98822.00;;;6.84;75.45
34177;BME280;20450;49.074;9.158;2023-04-15T01:05:38;98813.50;;;6.87;75.55
34177;BME280;20450;49.074;9.158;2023-04-15T01:08:05;98822.78;;;6.91;74.95
34177;BME280;20450;49.074;9.158;2023-04-15T01:10:32;98823.03;;;6.77;74.96
34177;BME280;20450;49.074;9.158;2023-04-15T01:13:00;98830.06;;;6.71;75.70
34177;BME280;20450;49.074;9.158;2023-04-15T01:15:28;98825.94;;;6.69;75.79
34177;BME280;20450;49.074;9.158;2023-04-15T01:17:58;98830.06;;;6.71;75.61
34177;BME280;20450;49.074;9.158;2023-04-15T01:20:26;98838.53;;;6.75;75.61
34177;BME280;20450;49.074;9.158;2023-04-15T01:22:55;98835.63;;;6.76;75.27
34177;BME280;20450;49.074;9.158;2023-04-15T01:25:30;98833.19;;;6.55;75.84
34177;BME280;20450;49.074;9.158;2023-04-15T01:27:58;98826.63;;;6.32;76.14
34177;BME280;20450;49.074;9.158;2023-04-15T01:30:25;98826.41;;;6.33;76.47
34177;BME280;20450;49.074;9.158;2023-04-15T01:32:53;98820.22;;;6.39;75.98
34177;BME280;20450;49.074;9.158;2023-04-15T01:35:39;98830.31;;;6.44;75.79
34177;BME280;20450;49.074;9.158;2023-04-15T01:38:08;98819.59;;;6.44;75.96
34177;BME280;20450;49.074;9.158;2023-04-15T01:40:39;98822.91;;;6.26;76.21
34177;BME280;20450;49.074;9.158;2023-04-15T01:43:06;98828.06;;;6.21;76.31
34177;BME280;20450;49.074;9.158;2023-04-15T01:45:33;98820.03;;;6.28;76.13
34177;BME280;20450;49.074;9.158;2023-04-15T01:48:03;98822.88;;;5.74;78.55
34177;BME280;20450;49.074;9.158;2023-04-15T01:50:30;98818.94;;;5.63;78.78
34177;BME280;20450;49.074;9.158;2023-04-15T01:52:57;98825.75;;;5.72;78.55
34177;BME280;20450;49.074;9.158;2023-04-15T01:55:24;98820.97;;;5.55;78.85
34177;BME280;20450;49.074;9.158;2023-04-15T01:57:52;98817.66;;;5.53;79.53
34177;BME280;20450;49.074;9.158;2023-04-15T02:00:20;98813.97;;;5.67;79.34
34177;BME280;20450;49.074;9.158;2023-04-15T02:02:47;98813.56;;;5.70;78.90
34177;BME280;20450;49.074;9.158;2023-04-15T02:05:15;98818.31;;;5.55;80.00
34177;BME280;20450;49.074;9.158;2023-04-15T02:07:46;98819.72;;;5.44;81.42
34177;BME280;20450;49.074;9.158;2023-04-15T02:10:13;98817.06;;;5.64;80.76
34177;BME280;20450;49.074;9.158;2023-04-15T02:12:40;98822.03;;;5.73;80.68
34177;BME280;20450;49.074;9.158;2023-04-15T02:15:10;98827.38;;;5.67;81.25
34177;BME280;20450;49.074;9.158;2023-04-15T02:17:36;98826.97;;;5.70;81.70
34177;BME280;20450;49.074;9.158;2023-04-15T02:20:05;98829.31;;;5.86;81.57
34177;BME280;20450;49.074;9.158;2023-04-15T02:22:34;98814.88;;;5.93;80.89
34177;BME280;20450;49.074;9.158;2023-04-15T02:25:01;98812.59;;;5.97;80.44
34177;BME280;20450;49.074;9.158;2023-04-15T02:27:30;98817.53;;;6.00;79.95
34177;BME280;20450;49.074;9.158;2023-04-15T02:29:57;98826.66;;;6.06;80.08
34177;BME280;20450;49.074;9.158;2023-04-15T02:32:26;98817.16;;;6.10;79.41
34177;BME280;20450;49.074;9.158;2023-04-15T02:34:54;98808.69;;;6.13;79.43
34177;BME280;20450;49.074;9.158;2023-04-15T02:37:21;98811.34;;;6.19;78.91
34177;BME280;20450;49.074;9.158;2023-04-15T02:39:49;98815.50;;;6.15;78.91
34177;BME280;20450;49.074;9.158;2023-04-15T02:42:17;98817.34;;;6.08;78.73
34177;BME280;20450;49.074;9.158;2023-04-15T02:44:44;98813.41;;;6.11;78.34
34177;BME280;20450;49.074;9.158;2023-04-15T02:47:11;98821.88;;;6.07;77.59
34177;BME280;20450;49.074;9.158;2023-04-15T02:49:39;98823.94;;;5.99;77.07
34177;BME280;20450;49.074;9.158;2023-04-15T02:52:06;98820.84;;;5.82;77.05
34177;BME280;20450;49.074;9.158;2023-04-15T02:54:33;98819.94;;;5.62;78.36
34177;BME280;20450;49.074;9.158;2023-04-15T02:57:00;98823.25;;;5.64;78.52
34177;BME280;20450;49.074;9.158;2023-04-15T02:59:28;98819.13;;;5.62;78.54
34177;BME280;20450;49.074;9.158;2023-04-15T03:09:42;98815.16;;;4.85;80.95
34177;BME280;20450;49.074;9.158;2023-04-15T03:12:09;98818.94;;;4.97;81.02
34177;BME280;20450;49.074;9.158;2023-04-15T03:14:36;98816.75;;;5.13;80.64
34177;BME280;20450;49.074;9.158;2023-04-15T03:17:03;98812.03;;;5.28;80.10
34177;BME280;20450;49.074;9.158;2023-04-15T03:19:31;98806.28;;;5.31;79.52
34177;BME280;20450;49.074;9.158;2023-04-15T03:21:58;98820.91;;;5.29;79.63
34177;BME280;20450;49.074;9.158;2023-04-15T03:24:26;98816.50;;;5.15;80.08
34177;BME280;20450;49.074;9.158;2023-04-15T03:26:55;98810.34;;;5.21;80.08
34177;BME280;20450;49.074;9.158;2023-04-15T03:29:22;98814.31;;;5.31;80.19
34177;BME280;20450;49.074;9.158;2023-04-15T03:31:51;98819.69;;;5.38;80.06
34177;BME280;20450;49.074;9.158;2023-04-15T03:34:18;98817.84;;;5.45;79.87
34177;BME280;20450;49.074;9.158;2023-04-15T03:36:45;98816.63;;;5.54;79.50
34177;BME280;20450;49.074;9.158;2023-04-15T03:39:12;98811.50;;;5.59;79.64
34177;BME280;20450;49.074;9.158;2023-04-15T03:41:41;98809.03;;;5.57;79.23
34177;BME280;20450;49.074;9.158;2023-04-15T03:44:08;98815.81;;;5.53;79.31
34177;BME280;20450;49.074;9.158;2023-04-15T03:46:35;98813.16;;;5.60;79.07
34177;BME280;20450;49.074;9.158;2023-04-15T03:49:02;98810.25;;;5.61;78.73
34177;BME280;20450;49.074;9.158;2023-04-15T03:51:29;98807.38;;;5.50;78.88
34177;BME280;20450;49.074;9.158;2023-04-15T03:53:56;98807.13;;;5.45;79.34
34177;BME280;20450;49.074;9.158;2023-04-15T03:56:23;98805.91;;;5.41;79.55
34177;BME280;20450;49.074;9.158;2023-04-15T03:58:51;98806.13;;;5.46;79.11
34177;BME280;20450;49.074;9.158;2023-04-15T04:01:18;98810.88;;;5.50;79.21
34177;BME280;20450;49.074;9.158;2023-04-15T04:03:45;98808.41;;;5.55;78.49
34177;BME280;20450;49.074;9.158;2023-04-15T04:06:13;98808.81;;;5.59;78.69
34177;BME280;20450;49.074;9.158;2023-04-15T04:08:40;98806.16;;;5.59;78.30
34177;BME280;20450;49.074;9.158;2023-04-15T04:11:08;98814.16;;;5.52;78.40
34177;BME280;20450;49.074;9.158;2023-04-15T04:13:34;98813.28;;;5.39;78.90
34177;BME280;20450;49.074;9.158;2023-04-15T04:16:03;98813.44;;;5.18;79.39
34177;BME280;20450;49.074;9.158;2023-04-15T04:18:31;98823.09;;;5.06;80.00
34177;BME280;20450;49.074;9.158;2023-04-15T04:20:59;98811.31;;;5.00;80.13
34177;BME280;20450;49.074;9.158;2023-04-15T04:23:26;98817.25;;;4.89;80.23
34177;BME280;20450;49.074;9.158;2023-04-15T04:25:54;98823.59;;;4.82;80.69
34177;BME280;20450;49.074;9.158;2023-04-15T04:28:21;98827.00;;;4.63;81.22
34177;BME280;20450;49.074;9.158;2023-04-15T04:30:48;98815.09;;;4.72;81.37
34177;BME280;20450;49.074;9.158;2023-04-15T04:33:16;98812.69;;;4.83;80.89
34177;BME280;20450;49.074;9.158;2023-04-15T04:35:43;98816.38;;;4.82;80.33
34177;BME280;20450;49.074;9.158;2023-04-15T04:38:10;98821.84;;;4.61;81.29
34177;BME280;20450;49.074;9.158;2023-04-15T04:40:37;98830.72;;;4.68;80.89
34177;BME280;20450;49.074;9.158;2023-04-15T04:43:04;98832.59;;;4.74;80.75
34177;BME280;20450;49.074;9.158;2023-04-15T04:45:31;98840.00;;;4.72;80.54
34177;BME280;20450;49.074;9.158;2023-04-15T04:47:58;98836.78;;;4.83;80.66
34177;BME280;20450;49.074;9.158;2023-04-15T04:50:27;98837.66;;;4.97;80.27
34177;BME280;20450;49.074;9.158;2023-04-15T04:52:54;98838.50;;;5.04;79.43
34177;BME280;20450;49.074;9.158;2023-04-15T04:55:21;98844.91;;;5.09;79.34
34177;BME280;20450;49.074;9.158;2023-04-15T04:57:48;98853.13;;;5.01;80.90
34177;BME280;20450;49.074;9.158;2023-04-15T05:00:16;98857.50;;;4.75;83.20
34177;BME280;20450;49.074;9.158;2023-04-15T05:02:44;98854.81;;;4.41;85.41
34177;BME280;20450;49.074;9.158;2023-04-15T05:05:11;98858.75;;;4.45;86.03
34177;BME280;20450;49.074;9.158;2023-04-15T05:07:40;98852.84;;;4.56;86.72
34177;BME280;20450;49.074;9.158;2023-04-15T05:10:08;98856.44;;;4.69;85.95
34177;BME280;20450;49.074;9.158;2023-04-15T05:12:35;98843.97;;;4.83;85.23
34177;BME280;20450;49.074;9.158;2023-04-15T05:15:03;98841.53;;;4.88;84.54
34177;BME280;20450;49.074;9.158;2023-04-15T05:17:31;98840.75;;;4.94;84.38
34177;BME280;20450;49.074;9.158;2023-04-15T05:19:58;98836.69;;;5.04;83.87
34177;BME280;20450;49.074;9.158;2023-04-15T05:22:25;98845.19;;;5.27;83.46
34177;BME280;20450;49.074;9.158;2023-04-15T05:24:54;98841.16;;;5.51;82.41
34177;BME280;20450;49.074;9.158;2023-04-15T05:27:21;98846.13;;;5.67;80.61
34177;BME280;20450;49.074;9.158;2023-04-15T05:29:48;98844.13;;;5.82;78.62
34177;BME280;20450;49.074;9.158;2023-04-15T05:32:15;98852.19;;;5.95;77.92
34177;BME280;20450;49.074;9.158;2023-04-15T05:34:42;98854.66;;;6.03;77.72
34177;BME280;20450;49.074;9.158;2023-04-15T05:37:09;98853.66;;;6.17;76.69
34177;BME280;20450;49.074;9.158;2023-04-15T05:39:36;98851.38;;;5.94;76.61
34177;BME280;20450;49.074;9.158;2023-04-15T05:42:05;98851.16;;;6.09;77.01
34177;BME280;20450;49.074;9.158;2023-04-15T05:44:32;98854.28;;;6.32;76.04
34177;BME280;20450;49.074;9.158;2023-04-15T05:47:00;98856.47;;;6.87;74.32
34177;BME280;20450;49.074;9.158;2023-04-15T05:49:27;98848.56;;;6.99;73.71
34177;BME280;20450;49.074;9.158;2023-04-15T05:51:55;98849.59;;;7.04;72.78
34177;BME280;20450;49.074;9.158;2023-04-15T05:54:22;98850.09;;;7.76;71.95
34177;BME280;20450;49.074;9.158;2023-04-15T05:56:49;98852.81;;;8.57;69.21
34177;BME280;20450;49.074;9.158;2023-04-15T05:59:18;98857.72;;;9.02;66.61
34177;BME280;20450;49.074;9.158;2023-04-15T06:01:45;98858.59;;;8.78;66.68
34177;BME280;20450;49.074;9.158;2023-04-15T06:04:13;98861.97;;;8.92;66.09
34177;BME280;20450;49.074;9.158;2023-04-15T06:06:40;98861.03;;;9.04;66.01
34177;BME280;20450;49.074;9.158;2023-04-15T06:09:07;98866.31;;;9.11;65.71
34177;BME280;20450;49.074;9.158;2023-04-15T06:11:34;98863.03;;;8.17;68.30
34177;BME280;20450;49.074;9.158;2023-04-15T06:14:01;98859.66;;;7.66;70.61
34177;BME280;20450;49.074;9.158;2023-04-15T06:16:29;98863.31;;;7.78;71.06
34177;BME280;20450;49.074;9.158;2023-04-15T06:18:57;98874.22;;;8.14;69.65
34177;BME280;20450;49.074;9.158;2023-04-15T06:21:24;98875.28;;;8.13;69.45
34177;BME280;20450;49.074;9.158;2023-04-15T06:23:51;98879.38;;;8.16;68.98
34177;BME280;20450;49.074;9.158;2023-04-15T06:26:19;98872.78;;;8.43;68.25
34177;BME280;20450;49.074;9.158;2023-04-15T06:28:46;98873.47;;;8.63;67.15
34177;BME280;20450;49.074;9.158;2023-04-15T06:31:13;98880.75;;;8.80;66.24
34177;BME280;20450;49.074;9.158;2023-04-15T06:33:42;98869.28;;;9.39;65.12
34177;BME280;20450;49.074;9.158;2023-04-15T06:36:09;98865.38;;;10.76;61.27
34177;BME280;20450;49.074;9.158;2023-04-15T06:38:35;98865.38;;;12.02;56.80
34177;BME280;20450;49.074;9.158;2023-04-15T06:41:03;98871.16;;;12.88;53.50
34177;BME280;20450;49.074;9.158;2023-04-15T06:43:30;98874.66;;;13.21;52.16
34177;BME280;20450;49.074;9.158;2023-04-15T06:45:57;98882.22;;;13.19;53.02
34177;BME280;20450;49.074;9.158;2023-04-15T06:48:25;98871.13;;;14.65;49.53
34177;BME280;20450;49.074;9.158;2023-04-15T06:50:55;98872.75;;;15.39;46.75
34177;BME280;20450;49.074;9.158;2023-04-15T06:53:22;98874.38;;;13.01;51.70
34177;BME280;20450;49.074;9.158;2023-04-15T06:55:49;98882.00;;;12.88;53.10
34177;BME280;20450;49.074;9.158;2023-04-15T06:58:17;98879.28;;;12.88;53.13
34177;BME280;20450;49.074;9.158;2023-04-15T07:00:45;98882.59;;;9.99;61.16
34177;BME280;20450;49.074;9.158;2023-04-15T07:03:13;98886.81;;;10.25;61.97
34177;BME280;20450;49.074;9.158;2023-04-15T07:05:40;98882.88;;;9.32;65.67
34177;BME280;20450;49.074;9.158;2023-04-15T07:08:09;98881.28;;;9.61;65.35
34177;BME280;20450;49.074;9.158;2023-04-15T07:10:36;98884.56;;;9.92;64.21
34177;BME280;20450;49.074;9.158;2023-04-15T07:13:03;98882.44;;;10.13;62.76
34177;BME280;20450;49.074;9.158;2023-04-15T07:15:34;98876.69;;;9.91;63.98
34177;BME280;20450;49.074;9.158;2023-04-15T07:18:01;98874.66;;;9.57;64.33
34177;BME280;20450;49.074;9.158;2023-04-15T07:20:29;98876.66;;;10.09;62.92
34177;BME280;20450;49.074;9.158;2023-04-15T07:22:56;98871.22;;;10.39;62.95
34177;BME280;20450;49.074;9.158;2023-04-15T07:25:24;98877.25;;;10.87;61.08
34177;BME280;20450;49.074;9.158;2023-04-15T07:27:52;98868.91;;;11.11;60.42
34177;BME280;20450;49.074;9.158;2023-04-15T07:30:19;98872.94;;;11.48;60.07
34177;BME280;20450;49.074;9.158;2023-04-15T07:32:47;98861.69;;;12.90;56.61
34177;BME280;20450;49.074;9.158;2023-04-15T07:35:14;98855.19;;;13.46;53.83
34177;BME280;20450;49.074;9.158;2023-04-15T07:37:41;98862.50;;;13.67;52.82
34177;BME280;20450;49.074;9.158;2023-04-15T07:40:09;98862.13;;;14.07;50.15
34177;BME280;20450;49.074;9.158;2023-04-15T07:42:38;98858.38;;;14.34;50.23
34177;BME280;20450;49.074;9.158;2023-04-15T07:45:08;98872.19;;;13.20;52.22
34177;BME280;20450;49.074;9.158;2023-04-15T07:47:35;98863.44;;;12.80;54.74
34177;BME280;20450;49.074;9.158;2023-04-15T07:50:02;98857.88;;;13.89;52.38
34177;BME280;20450;49.074;9.158;2023-04-15T07:52:30;98855.03;;;14.27;50.02
34177;BME280;20450;49.074;9.158;2023-04-15T07:54:57;98856.78;;;14.75;49.54
34177;BME280;20450;49.074;9.158;2023-04-15T07:57:24;98855.63;;;15.44;48.46
34177;BME280;20450;49.074;9.158;2023-04-15T07:59:52;98859.66;;;16.08;45.86
34177;BME280;20450;49.074;9.158;2023-04-15T08:02:19;98859.19;;;16.71;44.26
34177;BME280;20450;49.074;9.158;2023-04-15T08:04:47;98839.66;;;17.63;41.12
34177;BME280;20450;49.074;9.158;2023-04-15T08:07:14;98843.25;;;18.07;41.17
34177;BME280;20450;49.074;9.158;2023-04-15T08:09:41;98846.13;;;19.26;38.64
34177;BME280;20450;49.074;9.158;2023-04-15T08:12:08;98837.13;;;19.92;37.35
34177;BME280;20450;49.074;9.158;2023-04-15T08:14:37;98829.56;;;20.58;36.17
34177;BME280;20450;49.074;9.158;2023-04-15T08:17:08;98837.03;;;23.04;36.74
34177;BME280;20450;49.074;9.158;2023-04-15T08:19:35;98837.13;;;22.33;32.75
34177;BME280;20450;49.074;9.158;2023-04-15T08:22:02;98838.72;;;20.35;35.65
34177;BME280;20450;49.074;9.158;2023-04-15T08:24:30;98837.38;;;20.14;37.34
34177;BME280;20450;49.074;9.158;2023-04-15T08:26:57;98841.75;;;19.73;37.07
34177;BME280;20450;49.074;9.158;2023-04-15T08:31:10;98850.19;;;16.86;42.67
34177;BME280;20450;49.074;9.158;2023-04-15T08:33:39;98845.59;;;18.24;42.33
34177;BME280;20450;49.074;9.158;2023-04-15T08:36:06;98839.78;;;18.74;39.61
34177;BME280;20450;49.074;9.158;2023-04-15T08:38:34;98848.50;;;19.33;39.19
34177;BME280;20450;49.074;9.158;2023-04-15T08:41:20;98848.69;;;19.65;37.25
34177;BME280;20450;49.074;9.158;2023-04-15T08:43:51;98851.63;;;19.21;38.09
34177;BME280;20450;49.074;9.158;2023-04-15T08:46:22;98844.00;;;20.08;36.62
34177;BME280;20450;49.074;9.158;2023-04-15T08:48:49;98843.69;;;20.14;36.33
34177;BME280;20450;49.074;9.158;2023-04-15T08:51:17;98841.53;;;19.69;37.71
34177;BME280;20450;49.074;9.158;2023-04-15T08:53:45;98842.47;;;19.07;39.24
34177;BME280;20450;49.074;9.158;2023-04-15T08:56:14;98843.66;;;18.24;40.76
34177;BME280;20450;49.074;9.158;2023-04-15T08:58:43;98839.00;;;17.81;41.86
34177;BME280;20450;49.074;9.158;2023-04-15T09:01:11;98838.25;;;17.71;42.23
34177;BME280;20450;49.074;9.158;2023-04-15T09:03:43;98851.03;;;16.46;44.85
34177;BME280;20450;49.074;9.158;2023-04-15T09:06:37;98854.56;;;16.57;46.48
34177;BME280;20450;49.074;9.158;2023-04-15T09:09:07;98849.31;;;16.15;47.48
34177;BME280;20450;49.074;9.158;2023-04-15T09:11:34;98847.16;;;15.40;48.92
34177;BME280;20450;49.074;9.158;2023-04-15T09:14:04;98856.41;;;15.39;50.11
34177;BME280;20450;49.074;9.158;2023-04-15T09:16:31;98850.56;;;15.16;51.75
34177;BME280;20450;49.074;9.158;2023-04-15T09:19:06;98850.44;;;15.47;51.23
34177;BME280;20450;49.074;9.158;2023-04-15T09:21:46;98857.56;;;15.53;49.13
34177;BME280;20450;49.074;9.158;2023-04-15T09:24:16;98856.09;;;15.98;48.92
34177;BME280;20450;49.074;9.158;2023-04-15T09:27:04;98859.09;;;15.96;49.20
34177;BME280;20450;49.074;9.158;2023-04-15T09:29:32;98872.09;;;15.79;49.90
34177;BME280;20450;49.074;9.158;2023-04-15T09:32:09;98864.59;;;16.21;48.25
34177;BME280;20450;49.074;9.158;2023-04-15T09:34:38;98871.97;;;15.07;49.89
34177;BME280;20450;49.074;9.158;2023-04-15T09:37:05;98869.75;;;14.99;50.93
34177;BME280;20450;49.074;9.158;2023-04-15T09:39:48;98875.59;;;14.81;51.67
34177;BME280;20450;49.074;9.158;2023-04-15T09:42:16;98879.50;;;15.94;50.25
34177;BME280;20450;49.074;9.158;2023-04-15T09:44:46;98873.63;;;16.52;48.25
34177;BME280;20450;49.074;9.158;2023-04-15T09:47:27;98878.00;;;16.83;47.09
34177;BME280;20450;49.074;9.158;2023-04-15T09:49:56;98880.97;;;17.31;47.16
34177;BME280;20450;49.074;9.158;2023-04-15T09:52:24;98880.53;;;17.83;44.63
34177;BME280;20450;49.074;9.158;2023-04-15T09:54:52;98875.34;;;17.87;44.40
34177;BME280;20450;49.074;9.158;2023-04-15T09:57:20;98886.00;;;17.78;43.49
34177;BME280;20450;49.074;9.158;2023-04-15T09:59:47;98882.03;;;17.30;45.51
34177;BME280;20450;49.074;9.158;2023-04-15T10:02:15;98875.41;;;17.67;44.24
34177;BME280;20450;49.074;9.158;2023-04-15T10:04:47;98885.63;;;17.21;44.60
34177;BME280;20450;49.074;9.158;2023-04-15T10:07:16;98874.28;;;17.78;43.92
34177;BME280;20450;49.074;9.158;2023-04-15T10:09:44;98860.28;;;17.94;42.98
34177;BME280;20450;49.074;9.158;2023-04-15T10:12:12;98873.31;;;18.07;43.39
34177;BME280;20450;49.074;9.158;2023-04-15T10:14:42;98871.06;;;18.19;41.94
34177;BME280;20450;49.074;9.158;2023-04-15T10:17:10;98870.44;;;18.71;42.94
34177;BME280;20450;49.074;9.158;2023-04-15T10:19:38;98866.75;;;18.52;41.04
34177;BME280;20450;49.074;9.158;2023-04-15T10:22:07;98868.75;;;18.41;41.49
34177;BME280;20450;49.074;9.158;2023-04-15T10:24:37;98868.75;;;18.41;40.95
34177;BME280;20450;49.074;9.158;2023-04-15T10:27:06;98864.84;;;19.43;40.54
34177;BME280;20450;49.074;9.158;2023-04-15T10:29:34;98872.81;;;20.29;38.85
34177;BME280;20450;49.074;9.158;2023-04-15T10:32:02;98877.47;;;20.28;37.61
34177;BME280;20450;49.074;9.158;2023-04-15T10:34:31;98876.00;;;20.36;38.58
34177;BME280;20450;49.074;9.158;2023-04-15T10:37:01;98866.13;;;20.16;35.02
34177;BME280;20450;49.074;9.158;2023-04-15T10:39:40;98866.41;;;20.15;35.64
34177;BME280;20450;49.074;9.158;2023-04-15T10:42:11;98878.75;;;18.56;40.01
34177;BME280;20450;49.074;9.158;2023-04-15T10:44:44;98886.84;;;17.74;41.34
34177;BME280;20450;49.074;9.158;2023-04-15T10:51:51;98890.59;;;18.46;39.77
34177;BME280;20450;49.074;9.158;2023-04-15T10:54:30;98882.03;;;18.91;39.40
34177;BME280;20450;49.074;9.158;2023-04-15T10:57:08;98880.88;;;18.97;37.68
34177;BME280;20450;49.074;9.158;2023-04-15T11:06:43;98876.25;;;18.64;37.46
34177;BME280;20450;49.074;9.158;2023-04-15T11:09:29;98886.03;;;18.27;37.33
34177;BME280;20450;49.074;9.158;2023-04-15T11:12:06;98880.53;;;17.83;37.96
34177;BME280;20450;49.074;9.158;2023-04-15T11:18:52;98884.81;;;17.10;39.81
34177;BME280;20450;49.074;9.158;2023-04-15T11:21:24;98876.94;;;16.69;39.60
34177;BME280;20450;49.074;9.158;2023-04-15T11:23:51;98880.69;;;16.33;39.23
34177;BME280;20450;49.074;9.158;2023-04-15T11:26:18;98890.69;;;16.07;39.80
34177;BME280;20450;49.074;9.158;2023-04-15T11:32:04;98894.19;;;15.93;41.93
34177;BME280;20450;49.074;9.158;2023-04-15T11:34:31;98883.28;;;15.83;41.54
34177;BME280;20450;49.074;9.158;2023-04-15T11:37:03;98899.44;;;15.42;41.99
34177;BME280;20450;49.074;9.158;2023-04-15T11:39:31;98894.53;;;15.44;43.11
34177;BME280;20450;49.074;9.158;2023-04-15T11:41:59;98900.84;;;15.13;43.29
34177;BME280;20450;49.074;9.158;2023-04-15T11:44:26;98903.81;;;15.12;44.41
34177;BME280;20450;49.074;9.158;2023-04-15T11:46:55;98906.22;;;15.03;43.79
34177;BME280;20450;49.074;9.158;2023-04-15T11:49:26;98913.22;;;14.94;43.07
34177;BME280;20450;49.074;9.158;2023-04-15T11:51:54;98918.00;;;14.77;44.69
34177;BME280;20450;49.074;9.158;2023-04-15T11:54:21;98925.25;;;14.67;45.44
34177;BME280;20450;49.074;9.158;2023-04-15T11:56:49;98934.81;;;14.74;46.16
34177;BME280;20450;49.074;9.158;2023-04-15T11:59:19;98937.50;;;14.69;45.55
34177;BME280;20450;49.074;9.158;2023-04-15T12:01:46;98942.09;;;14.69;45.65
34177;BME280;20450;49.074;9.158;2023-04-15T12:04:18;98950.13;;;14.85;46.43
34177;BME280;20450;49.074;9.158;2023-04-15T12:06:50;98946.03;;;14.83;45.33
34177;BME280;20450;49.074;9.158;2023-04-15T12:09:17;98950.63;;;14.77;44.89
34177;BME280;20450;49.074;9.158;2023-04-15T12:11:46;98956.97;;;14.61;42.82
34177;BME280;20450;49.074;9.158;2023-04-15T12:14:34;98966.41;;;14.54;39.36
34177;BME280;20450;49.074;9.158;2023-04-15T12:17:03;98956.69;;;14.58;39.04
34177;BME280;20450;49.074;9.158;2023-04-15T12:19:35;98970.97;;;14.48;39.03
34177;BME280;20450;49.074;9.158;2023-04-15T12:22:37;98971.19;;;14.42;39.59
34177;BME280;20450;49.074;9.158;2023-04-15T12:25:08;98970.44;;;14.46;39.04
34177;BME280;20450;49.074;9.158;2023-04-15T12:27:36;98974.69;;;14.64;39.52
34177;BME280;20450;49.074;9.158;2023-04-15T12:30:04;98974.88;;;14.57;39.64
34177;BME280;20450;49.074;9.158;2023-04-15T12:32:34;98984.38;;;14.55;40.30
34177;BME280;20450;49.074;9.158;2023-04-15T12:35:03;98979.75;;;14.55;40.53
34177;BME280;20450;49.074;9.158;2023-04-15T12:37:31;98976.66;;;14.47;40.07
34177;BME280;20450;49.074;9.158;2023-04-15T12:39:58;98987.50;;;14.42;40.73
34177;BME280;20450;49.074;9.158;2023-04-15T12:42:25;98988.47;;;14.31;40.38
34177;BME280;20450;49.074;9.158;2023-04-15T12:44:52;98996.97;;;14.18;39.64
34177;BME280;20450;49.074;9.158;2023-04-15T12:47:22;98999.97;;;14.21;39.13
34177;BME280;20450;49.074;9.158;2023-04-15T12:50:16;99006.09;;;14.28;39.14
34177;BME280;20450;49.074;9.158;2023-04-15T12:52:45;99014.78;;;14.30;38.68
34177;BME280;20450;49.074;9.158;2023-04-15T12:55:12;99015.00;;;14.24;37.81
34177;BME280;20450;49.074;9.158;2023-04-15T12:57:41;99022.06;;;14.25;38.28
34177;BME280;20450;49.074;9.158;2023-04-15T13:00:17;99016.34;;;14.05;38.77
34177;BME280;20450;49.074;9.158;2023-04-15T13:02:44;99026.66;;;14.03;38.36
34177;BME280;20450;49.074;9.158;2023-04-15T13:05:11;99028.53;;;14.02;38.65
34177;BME280;20450;49.074;9.158;2023-04-15T13:08:02;99023.16;;;13.85;38.77
34177;BME280;20450;49.074;9.158;2023-04-15T13:10:29;99034.97;;;13.74;40.24
34177;BME280;20450;49.074;9.158;2023-04-15T13:12:56;99036.19;;;13.67;40.63
34177;BME280;20450;49.074;9.158;2023-04-15T13:15:24;99039.06;;;13.60;41.68
34177;BME280;20450;49.074;9.158;2023-04-15T13:17:54;99041.28;;;13.63;41.83
34177;BME280;20450;49.074;9.158;2023-04-15T13:20:22;99044.91;;;13.69;42.36
34177;BME280;20450;49.074;9.158;2023-04-15T13:22:51;99055.94;;;13.62;41.62
34177;BME280;20450;49.074;9.158;2023-04-15T13:25:19;99044.75;;;13.59;41.97
34177;BME280;20450;49.074;9.158;2023-04-15T13:27:47;99055.47;;;13.49;42.73
34177;BME280;20450;49.074;9.158;2023-04-15T13:30:19;99045.59;;;13.43;43.43
34177;BME280;20450;49.074;9.158;2023-04-15T13:32:48;99054.88;;;13.47;43.78
34177;BME280;20450;49.074;9.158;2023-04-15T13:35:16;99061.13;;;13.47;44.14
34177;BME280;20450;49.074;9.158;2023-04-15T13:37:43;99057.75;;;13.57;44.17
34177;BME280;20450;49.074;9.158;2023-04-15T13:40:10;99069.91;;;13.54;44.06
34177;BME280;20450;49.074;9.158;2023-04-15T13:58:28;99075.09;;;13.56;46.53